WetterOnline ( https://www.wetteronline.de )

Wetter aktuell Höxter

Aktuelles Wetter: Lügde-Paenbruch (260m)

6-stündlich | Neueste Meldungen
Ortszeit Temperatur Wetter
Mo, 03.10. 8:00 9.1° C bedeckt
Mo, 03.10. 2:00 9.8° C bewölkt
So, 02.10. 20:00 12.1° C wolkenlos
So, 02.10. 14:00 14.9° C wolkig
So, 02.10. 8:00 11.5° C wolkig
So, 02.10. 2:00 9.9° C wolkenlos
Sa, 01.10. 20:00 10.1° C wolkig
Sa, 01.10. 14:00 13.5° C bewölkt
Ortszeit Temperatur Wetter
Mo, 03.10. 10:00 10.0° C bewölkt
Mo, 03.10. 9:50 10.0° C bewölkt
Mo, 03.10. 9:40 9.9° C bewölkt
Mo, 03.10. 9:30 9.6° C bewölkt
Mo, 03.10. 9:20 9.6° C bewölkt
Mo, 03.10. 9:10 9.6° C bedeckt
Mo, 03.10. 9:00 9.3° C bewölkt
Mo, 03.10. 8:30 9.1° C bedeckt
Mo, 03.10. 8:00 9.1° C bedeckt
Mo, 03.10. 7:30 9.2° C bedeckt
Mo, 03.10. 7:00 9.4° C bedeckt
Ortszeit Relative Feuchte Sichtweite
Mo, 03.10. 8:00 96% 11 km
Mo, 03.10. 2:00 91% 29 km
So, 02.10. 20:00 79% 40 km
So, 02.10. 14:00 76% 30 km
So, 02.10. 8:00 91% 21 km
So, 02.10. 2:00 90% 50 km
Sa, 01.10. 20:00 96% 28 km
Sa, 01.10. 14:00 84% 55 km
Ortszeit Relative Feuchte Sichtweite
Mo, 03.10. 10:00 93% 23 km
Mo, 03.10. 9:50 93% -
Mo, 03.10. 9:40 94% -
Mo, 03.10. 9:30 95% 23 km
Mo, 03.10. 9:20 95% -
Mo, 03.10. 9:10 95% -
Mo, 03.10. 9:00 96% 12 km
Mo, 03.10. 8:30 97% 10 km
Mo, 03.10. 8:00 96% 11 km
Mo, 03.10. 7:30 96% 12 km
Mo, 03.10. 7:00 95% 12 km
Ortszeit Niederschlagsmenge Niederschlagsart
Mo, 03.10. 8:00 0.0 l/m2 in 12 Std. -
Mo, 03.10. 2:00 0.0 l/m2 in 6 Std. -
So, 02.10. 20:00 0.5 l/m2 in 12 Std. Regen
So, 02.10. 14:00 0.4 l/m2 in 6 Std. Regen
So, 02.10. 8:00 0.2 l/m2 in 12 Std. Regen
So, 02.10. 2:00 0.1 l/m2 in 6 Std. Regen
Sa, 01.10. 20:00 7 l/m2 in 12 Std. Regen
Sa, 01.10. 14:00 4 l/m2 in 6 Std. Regen
Ortszeit Niederschlagsmenge Niederschlagsart
Mo, 03.10. 10:00 0.0 l/m2 in 1 Std. -
Mo, 03.10. 9:50 keine Meldung -
Mo, 03.10. 9:40 keine Meldung -
Mo, 03.10. 9:30 0.0 l/m2 in 1 Std. -
Mo, 03.10. 9:20 keine Meldung -
Mo, 03.10. 9:10 keine Meldung -
Mo, 03.10. 9:00 0.0 l/m2 in 1 Std. -
Mo, 03.10. 8:30 0.0 l/m2 in 1 Std. -
Mo, 03.10. 8:00 0.0 l/m2 in 1 Std. -
Mo, 03.10. 7:30 0.0 l/m2 in 1 Std. -
Mo, 03.10. 7:00 0.0 l/m2 in 1 Std. -
Ortszeit Stärke Spitze Richtung
km/h Bft. km/h Grad Sektor
Mo, 03.10. 8:00 11 2 29 220° SW
Mo, 03.10. 2:00 11 2 25 240° SW
So, 02.10. 20:00 7 2 43 290° W
So, 02.10. 14:00 14 3 29 270° W
So, 02.10. 8:00 11 2 29 240° SW
So, 02.10. 2:00 9 2 26 230° SW
Sa, 01.10. 20:00 4 1 43 170° S
Sa, 01.10. 14:00 18 3 50 230° SW
Ortszeit Stärke Spitze Richtung
km/h Bft. km/h Grad Sektor
Mo, 03.10. 10:00 4 1 22 190° S
Mo, 03.10. 9:50 4 1 - 190° S
Mo, 03.10. 9:40 6 1 - 240° SW
Mo, 03.10. 9:30 11 2 18 250° W
Mo, 03.10. 9:20 11 2 - 250° W
Mo, 03.10. 9:10 13 3 - 240° SW
Mo, 03.10. 9:00 11 2 22 240° SW
Mo, 03.10. 8:30 13 3 20 230° SW
Mo, 03.10. 8:00 11 2 18 220° SW
Mo, 03.10. 7:30 11 2 18 230° SW
Mo, 03.10. 7:00 7 2 25 260° W
Ortszeit Untergrenze Bedeckung Gattung
total tief tief mittel hoch
Mo, 03.10. 8:00 120 m 8/8 8/8 - - -
Mo, 03.10. 2:00 540 m 7/8 7/8 - - -
So, 02.10. 20:00 - 0/8 0/8 - - -
So, 02.10. 14:00 690 m 5/8 5/8 - - -
So, 02.10. 8:00 360 m 5/8 5/8 - - -
So, 02.10. 2:00 - 0/8 0/8 - - -
Sa, 01.10. 20:00 630 m 5/8 5/8 - - -
Sa, 01.10. 14:00 450 m 7/8 7/8 - - -
Ortszeit Bedeckungsgrad in Achtel und Wolkenuntergrenze
Mo, 03.10. 10:00 7(150m) 7(720m) 7(1170m)
Mo, 03.10. 9:50 7(150m) 7(720m) 7(1170m)
Mo, 03.10. 9:40 7
Mo, 03.10. 9:30 3(180m) 3(600m) 7(1170m)
Mo, 03.10. 9:20 3(180m) 3(600m) 7(1170m)
Mo, 03.10. 9:10 8
Mo, 03.10. 9:00 4(150m) 7(1200m)
Mo, 03.10. 8:30 7(150m) 7(840m) 8(1170m)
Mo, 03.10. 8:00 8(120m)
Mo, 03.10. 7:30 8(120m)
Mo, 03.10. 7:00 8(120m)
Ortszeit Luftdruck NN (hPa) Tendenz (hPa in 3 Std.)
Mo, 03.10. 8:00 1026 + 0,9
Mo, 03.10. 2:00 1024 + 1,5
So, 02.10. 20:00 1019 + 2,1
So, 02.10. 14:00 1016 + 0,4
So, 02.10. 8:00 1015 + 0,2
So, 02.10. 2:00 1014 + 1,7
Sa, 01.10. 20:00 1010 + 2,4
Sa, 01.10. 14:00 1004 + 1,1
Ortszeit Luftdruck NN (hPa) Tendenz (hPa in 3 Std.)
Mo, 03.10. 10:00 1027 + 1,4
Mo, 03.10. 9:50 1027 keine Meldung
Mo, 03.10. 9:40 1026 keine Meldung
Mo, 03.10. 9:30 1026 + 1,1
Mo, 03.10. 9:20 1026 keine Meldung
Mo, 03.10. 9:10 1026 keine Meldung
Mo, 03.10. 9:00 1026 + 1,0
Mo, 03.10. 8:30 1026 + 1,1
Mo, 03.10. 8:00 1026 + 0,9
Mo, 03.10. 7:30 1025 + 0,9
Mo, 03.10. 7:00 1025 + 0,8
Ortszeit Schneehöhe (cm)
Mo, 03.10. 8:00 0
Mo, 03.10. 2:00 0
So, 02.10. 20:00 0
So, 02.10. 14:00 0
So, 02.10. 8:00 0
So, 02.10. 2:00 0
Sa, 01.10. 20:00 0
Sa, 01.10. 14:00 0
Ortszeit Schneehöhe (cm)
Mo, 03.10. 10:00 0
Mo, 03.10. 9:50 0
Mo, 03.10. 9:40 0
Mo, 03.10. 9:30 0
Mo, 03.10. 9:20 0
Mo, 03.10. 9:10 0
Mo, 03.10. 9:00 0
Mo, 03.10. 8:30 0
Mo, 03.10. 8:00 0
Mo, 03.10. 7:30 0
Mo, 03.10. 7:00 0
Link zu dieser Seite / Seite empfehlen

Das Wetter in ...